Clarksville, Michigan
Current Conditions -  °F | °C
As of 10:53 PM on Sunday 21 Dec 2014 (Local Time) from KY70 Reporting Station
Haze Haze  
Wind Chill: 21°   Ceiling: Unl
Heat Index: 29°   Visibility: 5mi
Dew Point: 27°   Wind: 9mph
Humidity: 92%   Direction: 150°SSE
Pressure: 30.13"   Gusts: NA
Location:  42.84°N, 85.24°W
Report Text: KY70 220353Z AUTO 15008KT 5SM BR CLR M02/M03 A3013 RMK AO2 T10161028
Loading
Personal Weather Stations






























Interactive Weather Map New forecast layout! Learn more

10-Day Weather Forecast

Advertisements
Track Severe Weather on mobile